Time;durP1;ratioP1;P1;durP2;ratioP2;P2;SDS_P1;SDS_P2;PMS_P1;PMS_P2;Temp;Humidity;BMP_temperature;BMP_pressure;BME280_temperature;BME280_humidity;BME280_pressure;Samples;Min_cycle;Max_cycle;Signal;HPM_P1;HPM_P2
2023/03/20 00:04:57;;;;;;;48.85;16.27;;;;;;;;;;10419436;28;20028;-72
2023/03/20 00:10:20;;;;;;;40.80;15.65;;;;;;;;;;10418056;28;20039;-72
2023/03/20 00:15:41;;;;;;;45.92;15.60;;;;;;;;;;10421690;28;21260;-73
2023/03/20 00:21:02;;;;;;;43.40;15.50;;;;;;;;;;10433142;28;20032;-72
2023/03/20 00:26:25;;;;;;;40.00;14.48;;;;;;;;;;10404712;28;20040;-73
2023/03/20 00:31:46;;;;;;;51.05;16.00;;;;;;;;;;10419622;28;20037;-72
2023/03/20 00:37:08;;;;;;;44.42;15.13;;;;;;;;;;10419594;28;20048;-72
2023/03/20 00:42:29;;;;;;;41.33;13.70;;;;;;;;;;10428484;28;20032;-73
2023/03/20 00:47:50;;;;;;;38.92;14.57;;;;;;;;;;10403138;28;20041;-73
2023/03/20 00:53:11;;;;;;;38.97;14.55;;;;;;;;;;10425292;28;21372;-73
2023/03/20 00:58:32;;;;;;;43.97;14.32;;;;;;;;;;10428369;28;20035;-73
2023/03/20 01:03:53;;;;;;;39.70;14.65;;;;;;;;;;10418575;28;20036;-73
2023/03/20 01:09:14;;;;;;;41.65;15.32;;;;;;;;;;10428018;28;20544;-73
2023/03/20 01:14:35;;;;;;;40.30;14.77;;;;;;;;;;10442923;28;20041;-72
2023/03/20 01:19:56;;;;;;;40.20;15.02;;;;;;;;;;10431425;28;20063;-73
2023/03/20 01:25:17;;;;;;;31.55;12.93;;;;;;;;;;10412786;28;20029;-74
2023/03/20 01:30:38;;;;;;;31.73;14.00;;;;;;;;;;10425292;28;20386;-73
2023/03/20 01:35:59;;;;;;;46.53;16.92;;;;;;;;;;10429021;28;20040;-72
2023/03/20 01:41:21;;;;;;;32.55;14.70;;;;;;;;;;10416975;28;21168;-72
2023/03/20 01:46:43;;;;;;;46.03;17.40;;;;;;;;;;10408709;28;20047;-73
2023/03/20 01:52:04;;;;;;;43.33;16.10;;;;;;;;;;10430925;28;20029;-73
2023/03/20 01:57:25;;;;;;;33.95;14.25;;;;;;;;;;10443441;28;20089;-73
2023/03/20 02:02:47;;;;;;;43.95;16.17;;;;;;;;;;10451302;28;20044;-75
2023/03/20 02:08:19;;;;;;;39.95;16.17;;;;;;;;;;10443573;28;20032;-74
2023/03/20 02:13:41;;;;;;;41.22;15.38;;;;;;;;;;10448128;28;20036;-75
2023/03/20 02:19:05;;;;;;;45.70;17.10;;;;;;;;;;10447285;28;20040;-75
2023/03/20 02:24:45;;;;;;;35.75;14.73;;;;;;;;;;10451035;28;20576;-74
2023/03/20 02:30:20;;;;;;;39.83;15.05;;;;;;;;;;10436585;28;20390;-74
2023/03/20 02:36:00;;;;;;;38.25;15.90;;;;;;;;;;10448546;28;20029;-74
2023/03/20 02:41:24;;;;;;;49.53;19.40;;;;;;;;;;10440712;28;20564;-74
2023/03/20 02:46:48;;;;;;;46.15;18.00;;;;;;;;;;10445704;28;20038;-74
2023/03/20 02:52:21;;;;;;;53.05;18.30;;;;;;;;;;10435664;28;20045;-73
2023/03/20 02:58:00;;;;;;;44.92;18.48;;;;;;;;;;10431884;28;20358;-73
2023/03/20 03:03:21;;;;;;;55.30;18.77;;;;;;;;;;10431132;28;20021;-73
2023/03/20 03:08:45;;;;;;;46.15;17.77;;;;;;;;;;10430142;28;20584;-73
2023/03/20 03:14:06;;;;;;;48.58;16.52;;;;;;;;;;10457086;27;20041;-73
2023/03/20 03:19:28;;;;;;;49.58;17.80;;;;;;;;;;10429326;28;20504;-73
2023/03/20 03:24:51;;;;;;;50.13;18.42;;;;;;;;;;10441978;28;20032;-72
2023/03/20 03:30:24;;;;;;;50.00;20.05;;;;;;;;;;10430168;28;20192;-73
2023/03/20 03:35:45;;;;;;;47.65;17.48;;;;;;;;;;10431277;28;20037;-74
2023/03/20 03:41:15;;;;;;;45.92;18.40;;;;;;;;;;10433758;28;20036;-74
2023/03/20 03:46:50;;;;;;;42.80;16.08;;;;;;;;;;10428792;28;20060;-74
2023/03/20 03:52:14;;;;;;;51.35;20.27;;;;;;;;;;10434049;28;20037;-76
2023/03/20 03:57:47;;;;;;;48.55;17.42;;;;;;;;;;10431086;28;20056;-75
2023/03/20 04:03:08;;;;;;;43.60;16.92;;;;;;;;;;10431659;28;20060;-74
2023/03/20 04:08:29;;;;;;;48.30;17.85;;;;;;;;;;10433956;28;20040;-73
2023/03/20 04:13:51;;;;;;;52.83;18.30;;;;;;;;;;10431336;28;21178;-74
2023/03/20 04:19:12;;;;;;;42.25;16.45;;;;;;;;;;10427846;28;20040;-74
2023/03/20 04:24:33;;;;;;;33.72;15.98;;;;;;;;;;10426506;28;20048;-73
2023/03/20 04:29:54;;;;;;;39.05;15.15;;;;;;;;;;10432616;28;20036;-73
2023/03/20 04:35:15;;;;;;;40.08;16.40;;;;;;;;;;10432032;28;20040;-73
2023/03/20 04:40:36;;;;;;;48.50;19.52;;;;;;;;;;10447369;28;20040;-75
2023/03/20 04:45:57;;;;;;;55.83;19.55;;;;;;;;;;10451351;28;20055;-74
2023/03/20 04:51:17;;;;;;;41.67;17.23;;;;;;;;;;10455030;28;20036;-74
2023/03/20 04:56:39;;;;;;;43.50;18.63;;;;;;;;;;10478503;28;20057;-74
2023/03/20 05:01:59;;;;;;;42.75;16.67;;;;;;;;;;10479540;28;20043;-74
2023/03/20 05:07:20;;;;;;;43.85;18.10;;;;;;;;;;10477027;28;20052;-75
2023/03/20 05:12:41;;;;;;;47.30;17.73;;;;;;;;;;10488988;28;20028;-75
2023/03/20 05:18:02;;;;;;;44.17;16.83;;;;;;;;;;10471432;28;20553;-74
2023/03/20 05:23:24;;;;;;;47.75;17.77;;;;;;;;;;10470946;28;20051;-76
2023/03/20 05:28:45;;;;;;;42.70;17.90;;;;;;;;;;10471030;28;20036;-76
2023/03/20 05:34:06;;;;;;;47.13;18.52;;;;;;;;;;10459684;28;20032;-76
2023/03/20 05:39:27;;;;;;;46.05;20.25;;;;;;;;;;10496402;28;20412;-76
2023/03/20 05:44:48;;;;;;;38.35;15.55;;;;;;;;;;10481279;28;20504;-76
2023/03/20 05:50:09;;;;;;;40.53;15.90;;;;;;;;;;10482566;28;20405;-76
2023/03/20 05:55:31;;;;;;;39.25;16.63;;;;;;;;;;10451341;28;20052;-75
2023/03/20 06:00:52;;;;;;;43.15;16.92;;;;;;;;;;10439816;28;20414;-76
2023/03/20 06:06:14;;;;;;;41.63;15.52;;;;;;;;;;10448930;28;20043;-76
2023/03/20 06:11:35;;;;;;;36.22;15.75;;;;;;;;;;10450486;28;20027;-75
2023/03/20 06:16:56;;;;;;;41.80;16.08;;;;;;;;;;10432383;28;20040;-76
2023/03/20 06:22:17;;;;;;;40.90;15.10;;;;;;;;;;10431782;28;20401;-76
2023/03/20 06:27:38;;;;;;;34.83;17.08;;;;;;;;;;10434444;28;20661;-76
2023/03/20 06:32:59;;;;;;;33.40;13.75;;;;;;;;;;10438909;28;20731;-77
2023/03/20 06:38:20;;;;;;;39.67;15.75;;;;;;;;;;10437924;28;20516;-77
2023/03/20 06:43:41;;;;;;;48.33;15.38;;;;;;;;;;10434210;28;20033;-76
2023/03/20 06:49:02;;;;;;;33.60;13.88;;;;;;;;;;10449653;28;20517;-76
2023/03/20 06:54:23;;;;;;;32.88;14.35;;;;;;;;;;10464531;28;21487;-76
2023/03/20 06:59:44;;;;;;;35.25;13.90;;;;;;;;;;10489840;28;20059;-76
2023/03/20 07:05:05;;;;;;;59.92;17.25;;;;;;;;;;10471348;28;20035;-76
2023/03/20 07:10:27;;;;;;;48.03;17.58;;;;;;;;;;10484509;27;20501;-77
2023/03/20 07:15:48;;;;;;;37.10;14.30;;;;;;;;;;10472581;28;20665;-75
2023/03/20 07:21:10;;;;;;;43.47;15.15;;;;;;;;;;10492829;27;20032;-76
2023/03/20 07:26:31;;;;;;;41.85;14.82;;;;;;;;;;10488399;28;20508;-79
2023/03/20 07:31:52;;;;;;;37.78;14.15;;;;;;;;;;10498847;27;20035;-79
2023/03/20 07:37:13;;;;;;;43.80;16.08;;;;;;;;;;10474512;28;20059;-79
2023/03/20 07:42:34;;;;;;;42.10;14.93;;;;;;;;;;10460191;28;20080;-79
2023/03/20 07:47:55;;;;;;;33.00;13.57;;;;;;;;;;10479744;27;20050;-78
2023/03/20 07:53:16;;;;;;;27.90;12.43;;;;;;;;;;10483831;28;20443;-78
2023/03/20 07:58:37;;;;;;;23.42;11.27;;;;;;;;;;10521014;28;20050;-78
2023/03/20 08:03:57;;;;;;;23.33;11.40;;;;;;;;;;10520899;28;20580;-78
2023/03/20 08:09:19;;;;;;;22.95;11.48;;;;;;;;;;10549482;27;20043;-77
2023/03/20 08:14:41;;;;;;;32.25;12.55;;;;;;;;;;10518331;28;20040;-79
2023/03/20 08:20:02;;;;;;;23.90;11.60;;;;;;;;;;10523862;28;20037;-75
2023/03/20 08:25:23;;;;;;;19.25;10.43;;;;;;;;;;10543338;28;20031;-76
2023/03/20 08:30:44;;;;;;;37.75;15.20;;;;;;;;;;10531988;28;20028;-76
2023/03/20 08:36:05;;;;;;;22.95;10.93;;;;;;;;;;10535414;28;20040;-79
2023/03/20 08:41:26;;;;;;;22.48;11.48;;;;;;;;;;10507983;28;20043;-78
2023/03/20 08:46:47;;;;;;;26.50;10.18;;;;;;;;;;10533344;28;20812;-76
2023/03/20 08:52:08;;;;;;;26.48;11.00;;;;;;;;;;10504194;28;20040;-79
2023/03/20 08:57:29;;;;;;;17.98;9.93;;;;;;;;;;10515749;28;20054;-75
2023/03/20 09:02:50;;;;;;;25.02;11.63;;;;;;;;;;10522096;28;20408;-78
2023/03/20 09:08:11;;;;;;;19.75;11.05;;;;;;;;;;10518452;28;20501;-73
2023/03/20 09:13:32;;;;;;;28.25;11.25;;;;;;;;;;10527753;28;20036;-72
2023/03/20 09:18:53;;;;;;;21.67;11.93;;;;;;;;;;10524336;28;20509;-74
2023/03/20 09:24:15;;;;;;;24.67;10.27;;;;;;;;;;10523555;28;20097;-76
2023/03/20 09:29:36;;;;;;;19.58;10.25;;;;;;;;;;10520206;28;20028;-79
2023/03/20 09:34:57;;;;;;;24.48;11.07;;;;;;;;;;10547243;28;20047;-73
2023/03/20 09:40:21;;;;;;;21.58;10.35;;;;;;;;;;10524320;28;20025;-77
2023/03/20 09:46:07;;;;;;;21.25;10.30;;;;;;;;;;10522659;28;20051;-77
2023/03/20 09:51:37;;;;;;;20.40;11.02;;;;;;;;;;10541753;28;20032;-76
2023/03/20 09:57:16;;;;;;;24.38;10.32;;;;;;;;;;10535016;28;20064;-76
2023/03/20 10:02:36;;;;;;;30.58;12.38;;;;;;;;;;10514395;28;20029;-77
2023/03/20 10:07:59;;;;;;;24.52;10.18;;;;;;;;;;10531546;28;20051;-79
2023/03/20 10:13:36;;;;;;;19.65;11.85;;;;;;;;;;10516576;28;20036;-79
2023/03/20 10:19:09;;;;;;;23.60;11.40;;;;;;;;;;10532624;28;20043;-79
2023/03/20 10:24:41;;;;;;;16.05;9.63;;;;;;;;;;10527052;28;20047;-76
2023/03/20 10:30:14;;;;;;;22.77;10.93;;;;;;;;;;10516718;28;20032;-74
2023/03/20 10:35:39;;;;;;;15.85;9.18;;;;;;;;;;10523901;28;20036;-75
2023/03/20 10:41:01;;;;;;;21.90;9.82;;;;;;;;;;10542699;28;20036;-75
2023/03/20 10:46:25;;;;;;;15.55;8.85;;;;;;;;;;10538234;28;20378;-74
2023/03/20 10:51:49;;;;;;;21.38;9.73;;;;;;;;;;10538006;28;20025;-75
2023/03/20 10:57:20;;;;;;;18.17;8.73;;;;;;;;;;10492368;28;20044;-74
2023/03/20 11:02:41;;;;;;;18.17;8.30;;;;;;;;;;10475526;28;20044;-75
2023/03/20 11:08:11;;;;;;;17.88;9.43;;;;;;;;;;10490086;28;20126;-74
2023/03/20 11:13:34;;;;;;;17.38;9.27;;;;;;;;;;10468010;28;20040;-75
2023/03/20 11:18:55;;;;;;;21.48;11.40;;;;;;;;;;10478293;28;20032;-74
2023/03/20 11:24:36;;;;;;;18.08;8.95;;;;;;;;;;10479501;28;20036;-75
2023/03/20 11:29:59;;;;;;;26.75;10.48;;;;;;;;;;10506494;28;20498;-74
2023/03/20 11:35:26;;;;;;;21.75;9.20;;;;;;;;;;10480577;28;20515;-74
2023/03/20 11:40:48;;;;;;;20.50;10.27;;;;;;;;;;10455037;28;20039;-75
2023/03/20 11:46:11;;;;;;;15.35;9.07;;;;;;;;;;10479290;28;20048;-74
2023/03/20 11:51:34;;;;;;;15.00;8.60;;;;;;;;;;10478452;28;20040;-75
2023/03/20 11:56:58;;;;;;;18.25;8.90;;;;;;;;;;10478684;28;20048;-75
2023/03/20 12:02:21;;;;;;;18.73;8.60;;;;;;;;;;10478544;28;20025;-75
2023/03/20 12:07:43;;;;;;;19.27;7.78;;;;;;;;;;10490228;28;20044;-74
2023/03/20 12:13:08;;;;;;;22.95;9.30;;;;;;;;;;10499004;28;20032;-74
2023/03/20 12:18:34;;;;;;;20.02;9.13;;;;;;;;;;10476844;28;20111;-75
2023/03/20 12:24:00;;;;;;;19.02;9.18;;;;;;;;;;10483808;28;20032;-74
2023/03/20 12:29:30;;;;;;;35.95;12.82;;;;;;;;;;10469778;28;20033;-75
2023/03/20 12:34:57;;;;;;;24.00;9.55;;;;;;;;;;10488252;28;20032;-75
2023/03/20 12:40:21;;;;;;;37.97;14.05;;;;;;;;;;10455361;28;20902;-74
2023/03/20 12:45:45;;;;;;;20.75;9.90;;;;;;;;;;10464587;28;20569;-75
2023/03/20 12:51:15;;;;;;;23.13;11.93;;;;;;;;;;10486379;28;20035;-76
2023/03/20 12:56:41;;;;;;;25.45;10.38;;;;;;;;;;10510908;28;20412;-76
2023/03/20 13:02:10;;;;;;;23.67;10.18;;;;;;;;;;10515706;28;20043;-76
2023/03/20 13:08:00;;;;;;;20.25;10.10;;;;;;;;;;10528274;28;20039;-76
2023/03/20 13:13:29;;;;;;;24.38;10.82;;;;;;;;;;10474199;28;20489;-76
2023/03/20 13:19:00;;;;;;;23.13;11.27;;;;;;;;;;10530301;28;20024;-76
2023/03/20 13:24:21;;;;;;;;;;;;;;;;;;10530657;28;20036;-79
2023/03/20 13:29:42;;;;;;;21.38;9.90;;;;;;;;;;10543039;28;19918;-80
2023/03/20 13:35:06;;;;;;;33.20;12.27;;;;;;;;;;10528068;28;20048;-79
2023/03/20 13:40:28;;;;;;;23.63;10.48;;;;;;;;;;10523786;28;20036;-78
2023/03/20 13:45:51;;;;;;;21.65;10.40;;;;;;;;;;10540628;28;20081;-79
2023/03/20 13:51:18;;;;;;;20.88;11.27;;;;;;;;;;10506754;28;20036;-78
2023/03/20 13:56:54;;;;;;;22.38;9.82;;;;;;;;;;10528225;28;20051;-80
2023/03/20 14:02:18;;;;;;;22.88;12.02;;;;;;;;;;10516473;28;20040;-80
2023/03/20 14:07:41;;;;;;;23.98;10.95;;;;;;;;;;10541996;27;20371;-79
2023/03/20 14:13:11;;;;;;;20.55;9.60;;;;;;;;;;10540508;28;20044;-79
2023/03/20 14:18:32;;;;;;;19.13;9.90;;;;;;;;;;10531328;28;20024;-79
2023/03/20 14:23:59;;;;;;;25.98;9.10;;;;;;;;;;10519609;28;20039;-79
2023/03/20 14:29:30;;;;;;;19.10;8.30;;;;;;;;;;10540431;28;20032;-79
2023/03/20 14:34:51;;;;;;;;;;;;;;;;;;10531317;28;20485;-78
2023/03/20 14:40:16;;;;;;;22.20;9.23;;;;;;;;;;10553774;28;19912;-78
2023/03/20 14:45:49;;;;;;;24.55;10.90;;;;;;;;;;10540645;28;20035;-78
2023/03/20 14:51:19;;;;;;;23.58;10.80;;;;;;;;;;10517966;28;20028;-77
2023/03/20 14:56:40;;;;;;;19.88;9.43;;;;;;;;;;10518417;28;20108;-79
2023/03/20 15:02:02;;;;;;;30.10;10.10;;;;;;;;;;10525881;28;20024;-80
2023/03/20 15:07:24;;;;;;;19.25;8.55;;;;;;;;;;10525910;28;20035;-81
2023/03/20 15:12:45;;;;;;;19.80;9.02;;;;;;;;;;10511595;28;20028;-81
2023/03/20 15:18:11;;;;;;;19.17;8.38;;;;;;;;;;10544876;28;20032;-81
2023/03/20 15:23:32;;;;;;;20.77;10.00;;;;;;;;;;10520246;28;20024;-80
2023/03/20 15:28:57;;;;;;;16.70;8.07;;;;;;;;;;10522866;28;20039;-81
2023/03/20 15:34:23;;;;;;;20.67;8.95;;;;;;;;;;10512522;28;20047;-81
2023/03/20 15:39:46;;;;;;;17.45;8.63;;;;;;;;;;10528433;28;20543;-82
2023/03/20 15:45:19;;;;;;;27.73;9.07;;;;;;;;;;10525766;28;20020;-82
2023/03/20 15:50:44;;;;;;;20.13;8.50;;;;;;;;;;10519830;28;20031;-80
2023/03/20 15:56:11;;;;;;;18.60;8.13;;;;;;;;;;10537501;28;20118;-78
2023/03/20 16:01:32;;;;;;;15.73;9.13;;;;;;;;;;10526929;28;20028;-80
2023/03/20 16:06:55;;;;;;;16.90;9.13;;;;;;;;;;10518974;28;20036;-84
2023/03/20 16:12:17;;;;;;;19.27;7.82;;;;;;;;;;10520105;28;20036;-81
2023/03/20 16:17:38;;;;;;;18.60;9.07;;;;;;;;;;10529130;28;20032;-83
2023/03/20 16:23:01;;;;;;;20.85;7.60;;;;;;;;;;10517660;28;20496;-83
2023/03/20 16:28:24;;;;;;;21.17;9.25;;;;;;;;;;10531146;28;20035;-83
2023/03/20 16:33:46;;;;;;;19.35;8.85;;;;;;;;;;10526272;28;20032;-82
2023/03/20 16:39:09;;;;;;;18.58;8.70;;;;;;;;;;10533112;28;20489;-83
2023/03/20 16:44:35;;;;;;;20.98;9.18;;;;;;;;;;10528840;28;20041;-84
2023/03/20 16:50:31;;;;;;;15.48;7.85;;;;;;;;;;10532331;28;20024;-84
2023/03/20 16:55:53;;;;;;;18.88;8.00;;;;;;;;;;10491775;28;20512;-83
2023/03/20 17:01:17;;;;;;;15.63;8.70;;;;;;;;;;10542961;28;20032;-82
2023/03/20 17:06:42;;;;;;;18.15;9.10;;;;;;;;;;10511410;28;20032;-82
2023/03/20 17:12:16;;;;;;;19.25;9.15;;;;;;;;;;10514758;28;20454;-82
2023/03/20 17:17:37;;;;;;;28.42;10.27;;;;;;;;;;10521175;28;20050;-81
2023/03/20 17:22:58;;;;;;;26.30;10.40;;;;;;;;;;10510459;28;20036;-80
2023/03/20 17:28:21;;;;;;;21.73;8.98;;;;;;;;;;10506519;28;20401;-80
2023/03/20 17:33:42;;;;;;;21.60;9.38;;;;;;;;;;10504350;28;20110;-79
2023/03/20 17:39:03;;;;;;;23.95;10.07;;;;;;;;;;10519963;28;20051;-80
2023/03/20 17:44:24;;;;;;;17.08;9.25;;;;;;;;;;10522536;28;20044;-80
2023/03/20 17:49:45;;;;;;;22.90;10.07;;;;;;;;;;10517588;28;21357;-80
2023/03/20 17:55:06;;;;;;;26.23;10.93;;;;;;;;;;10503888;28;20048;-80
2023/03/20 18:00:27;;;;;;;31.33;12.32;;;;;;;;;;10507742;28;20039;-79
2023/03/20 18:05:49;;;;;;;23.50;10.50;;;;;;;;;;10515415;28;20110;-80
2023/03/20 18:11:10;;;;;;;24.02;11.82;;;;;;;;;;10520629;28;20028;-80
2023/03/20 18:16:31;;;;;;;23.83;10.43;;;;;;;;;;10505321;28;20039;-80
2023/03/20 18:21:52;;;;;;;29.70;11.57;;;;;;;;;;10512364;28;20028;-80
2023/03/20 18:27:13;;;;;;;22.60;11.18;;;;;;;;;;10505515;28;20040;-80
2023/03/20 18:32:34;;;;;;;29.20;14.38;;;;;;;;;;10508285;28;20032;-80
2023/03/20 18:37:55;;;;;;;38.15;14.82;;;;;;;;;;10504126;28;20029;-80
2023/03/20 18:43:16;;;;;;;30.23;11.45;;;;;;;;;;10548717;28;20039;-80
2023/03/20 18:48:37;;;;;;;32.47;12.38;;;;;;;;;;10542436;28;20032;-81
2023/03/20 18:53:58;;;;;;;32.63;11.55;;;;;;;;;;10533376;28;20048;-81
2023/03/20 18:59:19;;;;;;;20.52;11.82;;;;;;;;;;10554985;28;20038;-82
2023/03/20 19:04:40;;;;;;;19.13;10.57;;;;;;;;;;10558375;28;20039;-81
2023/03/20 19:10:01;;;;;;;25.77;11.60;;;;;;;;;;10536739;28;20024;-81
2023/03/20 19:15:23;;;;;;;23.63;11.05;;;;;;;;;;10562383;28;20036;-81
2023/03/20 19:20:46;;;;;;;27.20;11.88;;;;;;;;;;10557150;28;20040;-81
2023/03/20 19:26:13;;;;;;;21.80;11.43;;;;;;;;;;10550815;28;20397;-81
2023/03/20 19:31:34;;;;;;;22.55;12.23;;;;;;;;;;10551543;28;20409;-81
2023/03/20 19:36:55;;;;;;;24.90;13.13;;;;;;;;;;10534065;28;20043;-79
2023/03/20 19:42:16;;;;;;;32.28;12.57;;;;;;;;;;10551814;28;20051;-80
2023/03/20 19:47:36;;;;;;;30.50;12.10;;;;;;;;;;10549448;28;20496;-80
2023/03/20 19:52:57;;;;;;;38.15;14.55;;;;;;;;;;10541285;28;20032;-80
2023/03/20 19:58:19;;;;;;;22.25;12.13;;;;;;;;;;10545774;28;20036;-80
2023/03/20 20:03:40;;;;;;;32.30;13.80;;;;;;;;;;10536307;28;20036;-80
2023/03/20 20:09:02;;;;;;;35.25;15.98;;;;;;;;;;10545656;28;20036;-80
2023/03/20 20:14:23;;;;;;;36.10;15.63;;;;;;;;;;10539610;28;20044;-81
2023/03/20 20:19:44;;;;;;;27.15;13.82;;;;;;;;;;10543545;28;20048;-80
2023/03/20 20:25:05;;;;;;;33.60;15.35;;;;;;;;;;10537798;28;20043;-79
2023/03/20 20:30:26;;;;;;;34.78;15.82;;;;;;;;;;10542898;28;20027;-80
2023/03/20 20:35:47;;;;;;;33.55;14.75;;;;;;;;;;10534863;28;20500;-80
2023/03/20 20:41:08;;;;;;;25.20;12.80;;;;;;;;;;10540199;28;20036;-80
2023/03/20 20:46:29;;;;;;;24.27;13.55;;;;;;;;;;10515172;28;20493;-81
2023/03/20 20:51:50;;;;;;;24.70;13.48;;;;;;;;;;10499847;28;20044;-80
2023/03/20 20:57:11;;;;;;;24.58;12.00;;;;;;;;;;10542330;28;20048;-80
2023/03/20 21:02:33;;;;;;;27.55;13.35;;;;;;;;;;10546558;28;20097;-79
2023/03/20 21:07:54;;;;;;;22.38;12.30;;;;;;;;;;10552815;28;20047;-80
2023/03/20 21:13:15;;;;;;;29.25;12.50;;;;;;;;;;10537174;28;20029;-80
2023/03/20 21:18:36;;;;;;;32.70;13.88;;;;;;;;;;10540752;28;20036;-79
2023/03/20 21:23:56;;;;;;;24.80;12.30;;;;;;;;;;10516956;28;20496;-80
2023/03/20 21:29:18;;;;;;;26.40;13.57;;;;;;;;;;10539445;28;20036;-81
2023/03/20 21:34:39;;;;;;;30.77;13.50;;;;;;;;;;10559544;28;20037;-80
2023/03/20 21:40:01;;;;;;;24.48;12.57;;;;;;;;;;10546937;28;20397;-80
2023/03/20 21:45:22;;;;;;;25.50;12.60;;;;;;;;;;10542986;28;20047;-81
2023/03/20 21:50:43;;;;;;;26.95;12.30;;;;;;;;;;10572519;28;20044;-80
2023/03/20 21:56:04;;;;;;;27.42;14.07;;;;;;;;;;10558432;28;20066;-80
2023/03/20 22:01:25;;;;;;;23.05;12.07;;;;;;;;;;10558625;28;20044;-79
2023/03/20 22:06:46;;;;;;;36.42;12.70;;;;;;;;;;10570504;28;20035;-80
2023/03/20 22:12:07;;;;;;;21.20;12.07;;;;;;;;;;10552160;28;20023;-78
2023/03/20 22:17:28;;;;;;;28.38;12.68;;;;;;;;;;10562759;28;20497;-81
2023/03/20 22:22:49;;;;;;;24.05;11.93;;;;;;;;;;10560086;28;20054;-80
2023/03/20 22:28:10;;;;;;;23.40;12.85;;;;;;;;;;10552737;28;20496;-80
2023/03/20 22:33:31;;;;;;;21.73;12.40;;;;;;;;;;10562124;28;20019;-79
2023/03/20 22:38:52;;;;;;;30.38;13.18;;;;;;;;;;10537586;28;20043;-79
2023/03/20 22:44:13;;;;;;;34.70;13.85;;;;;;;;;;10555237;28;20036;-79
2023/03/20 22:49:34;;;;;;;23.45;13.10;;;;;;;;;;10539650;28;20032;-80
2023/03/20 22:54:57;;;;;;;21.98;12.35;;;;;;;;;;10562500;28;20050;-81
2023/03/20 23:00:18;;;;;;;28.27;12.57;;;;;;;;;;10557142;28;20036;-80
2023/03/20 23:05:39;;;;;;;25.67;12.75;;;;;;;;;;10544523;28;20028;-80
2023/03/20 23:11:05;;;;;;;25.75;12.65;;;;;;;;;;10572968;28;20020;-80
2023/03/20 23:16:26;;;;;;;22.42;11.63;;;;;;;;;;10556414;28;20047;-80
2023/03/20 23:21:47;;;;;;;25.75;12.15;;;;;;;;;;10541972;28;20024;-80
2023/03/20 23:27:07;;;;;;;20.40;11.30;;;;;;;;;;10554409;28;20065;-80
2023/03/20 23:32:28;;;;;;;24.63;12.43;;;;;;;;;;10521541;28;20040;-80
2023/03/20 23:37:49;;;;;;;17.70;11.70;;;;;;;;;;10529169;28;20043;-80
2023/03/20 23:43:10;;;;;;;23.95;12.30;;;;;;;;;;10538425;28;20032;-80
2023/03/20 23:48:32;;;;;;;31.23;14.07;;;;;;;;;;10545171;28;20047;-80
2023/03/20 23:53:52;;;;;;;29.50;13.98;;;;;;;;;;10533640;28;20044;-79
2023/03/20 23:59:14;;;;;;;31.88;13.10;;;;;;;;;;10534964;28;20516;-80
